Clyde, Michigan
Current Conditions -  °F | °C
As of 6:17 PM on Tuesday 25 Nov 2014 (Local Time) from KPHN Reporting Station
Overcast Overcast  
Wind Chill: 27°   Ceiling: 3300
Heat Index: 32°   Visibility: 10mi
Dew Point: 25°   Wind: 5mph
Humidity: 75%   Direction: 220°SW
Pressure: 30.12"   Gusts: NA
Location:  43.0355°N, 82.5759°W
Report Text: KPHN 252317Z AUTO 22004KT 10SM BKN033 OVC041 00/M04 A3012 RMK AO2
Loading
Personal Weather Stations






























Interactive Weather Map New forecast layout! Learn more

10-Day Weather Forecast

Advertisements
Track Severe Weather on mobile